Time;durP1;ratioP1;P1;durP2;ratioP2;P2;SDS_P1;SDS_P2;PMS_P1;PMS_P2;Temp;Humidity;BMP_temperature;BMP_pressure;BME280_temperature;BME280_humidity;BME280_pressure;Samples;Min_cycle;Max_cycle;Signal;HPM_P1;HPM_P2
2022/02/25 00:02:06;;;;;;;3.67;1.20;;;3.00;95.40;;;;;;5137219;28;20556;-44
2022/02/25 00:04:32;;;;;;;5.17;0.77;;;3.00;95.40;;;;;;5138484;27;20171;-44
2022/02/25 00:06:58;;;;;;;3.33;1.20;;;3.00;95.50;;;;;;5136605;27;20714;-44
2022/02/25 00:09:23;;;;;;;2.20;1.13;;;3.10;95.80;;;;;;5138259;28;20237;-44
2022/02/25 00:11:49;;;;;;;1.83;0.63;;;3.10;95.70;;;;;;5136116;28;20183;-44
2022/02/25 00:14:15;;;;;;;2.80;0.77;;;3.10;95.60;;;;;;5136869;28;20251;-43
2022/02/25 00:16:41;;;;;;;4.07;1.10;;;3.00;95.70;;;;;;5136745;27;20198;-44
2022/02/25 00:19:06;;;;;;;2.30;0.87;;;3.20;96.50;;;;;;5141420;27;20409;-44
2022/02/25 00:21:32;;;;;;;1.90;0.80;;;3.70;98.20;;;;;;5139119;27;20251;-44
2022/02/25 00:23:57;;;;;;;1.63;0.63;;;3.50;95.30;;;;;;5141569;27;20604;-44
2022/02/25 00:26:23;;;;;;;4.60;1.17;;;3.40;94.10;;;;;;5140576;27;20194;-44
2022/02/25 00:28:49;;;;;;;4.70;2.33;;;3.20;93.80;;;;;;5142526;27;20179;-44
2022/02/25 00:31:15;;;;;;;2.00;0.80;;;3.10;93.80;;;;;;5140201;27;20266;-44
2022/02/25 00:33:40;;;;;;;5.57;1.60;;;3.00;93.80;;;;;;5142003;27;20244;-44
2022/02/25 00:36:06;;;;;;;2.70;1.27;;;2.90;93.70;;;;;;5140581;27;20464;-44
2022/02/25 00:38:32;;;;;;;4.00;1.13;;;2.90;93.50;;;;;;5141805;27;20175;-44
2022/02/25 00:40:57;;;;;;;5.87;2.17;;;2.80;93.50;;;;;;5141808;27;20550;-44
2022/02/25 00:43:23;;;;;;;4.57;1.10;;;2.80;93.70;;;;;;5139919;27;20219;-44
2022/02/25 00:45:48;;;;;;;2.27;1.03;;;2.80;93.30;;;;;;5142230;27;20187;-44
2022/02/25 00:48:14;;;;;;;2.77;1.03;;;2.80;93.30;;;;;;5140055;27;20188;-44
2022/02/25 00:50:40;;;;;;;2.60;1.20;;;2.80;93.80;;;;;;5141367;27;20254;-44
2022/02/25 00:53:05;;;;;;;1.57;1.00;;;2.70;93.50;;;;;;5139717;27;20184;-44
2022/02/25 00:55:31;;;;;;;2.40;1.00;;;2.70;93.60;;;;;;5141112;27;20180;-44
2022/02/25 00:57:58;;;;;;;2.70;1.63;;;2.70;93.70;;;;;;5139887;27;20188;-44
2022/02/25 01:00:24;;;;;;;4.40;1.33;;;2.60;93.60;;;;;;5140220;27;20279;-44
2022/02/25 01:02:50;;;;;;;2.80;0.90;;;2.50;93.30;;;;;;5139674;27;20465;-45
2022/02/25 01:05:15;;;;;;;2.80;1.30;;;2.60;93.50;;;;;;5139881;27;20425;-44
2022/02/25 01:07:42;;;;;;;3.73;1.10;;;2.50;93.40;;;;;;5140903;27;20416;-44
2022/02/25 01:10:09;;;;;;;4.20;1.30;;;2.40;93.40;;;;;;5139812;27;20270;-44
2022/02/25 01:12:36;;;;;;;1.40;1.00;;;2.40;93.30;;;;;;5141084;27;20740;-44
2022/02/25 01:15:03;;;;;;;5.47;0.90;;;2.40;93.40;;;;;;5139844;27;20489;-44
2022/02/25 01:17:31;;;;;;;2.03;0.90;;;2.40;93.40;;;;;;5141443;27;20421;-44
2022/02/25 01:19:58;;;;;;;1.77;1.00;;;2.30;93.30;;;;;;5139568;27;20851;-42
2022/02/25 01:22:25;;;;;;;2.10;1.30;;;2.30;92.90;;;;;;5140640;27;20480;-44
2022/02/25 01:24:51;;;;;;;3.23;1.10;;;2.30;93.00;;;;;;5141350;27;20408;-44
2022/02/25 01:27:16;;;;;;;2.40;1.23;;;2.30;93.20;;;;;;5139923;27;20417;-44
2022/02/25 01:29:42;;;;;;;1.93;1.00;;;2.20;93.10;;;;;;5122873;27;20417;-44
2022/02/25 01:32:08;;;;;;;2.40;0.90;;;2.20;93.00;;;;;;5141128;27;20479;-44
2022/02/25 01:34:34;;;;;;;5.53;2.73;;;2.20;92.90;;;;;;5139147;27;20180;-44
2022/02/25 01:37:00;;;;;;;1.73;1.00;;;2.20;92.80;;;;;;5141109;27;20424;-44
2022/02/25 01:39:26;;;;;;;1.77;0.97;;;2.20;92.70;;;;;;5140782;27;20184;-44
2022/02/25 01:41:51;;;;;;;4.27;1.40;;;2.10;92.70;;;;;;5139115;27;20572;-44
2022/02/25 01:44:25;;;;;;;3.80;1.23;;;2.20;92.80;;;;;;5140262;27;20394;-44
2022/02/25 01:46:55;;;;;;;2.20;1.00;;;2.10;92.70;;;;;;5138785;27;20176;-44
2022/02/25 01:49:22;;;;;;;1.60;1.00;;;2.10;92.40;;;;;;5140624;27;20394;-44
2022/02/25 01:51:48;;;;;;;3.53;1.00;;;2.00;92.50;;;;;;5138048;27;20425;-44
2022/02/25 01:54:14;;;;;;;3.23;1.00;;;2.00;92.50;;;;;;5139039;27;20413;-44
2022/02/25 01:56:41;;;;;;;2.70;1.40;;;2.00;92.60;;;;;;5137585;27;20481;-44
2022/02/25 01:59:07;;;;;;;4.30;1.87;;;2.00;92.70;;;;;;5140691;27;20409;-44
2022/02/25 02:01:34;;;;;;;5.50;1.20;;;2.00;92.80;;;;;;5139110;27;20501;-44
2022/02/25 02:04:03;;;;;;;4.53;1.33;;;1.90;92.70;;;;;;5140625;27;20460;-44
2022/02/25 02:06:29;;;;;;;3.07;1.10;;;1.80;92.70;;;;;;5138873;27;20497;-44
2022/02/25 02:08:55;;;;;;;1.20;0.80;;;1.80;92.80;;;;;;5140181;27;20749;-44
2022/02/25 02:11:44;;;;;;;5.83;1.43;;;1.80;92.70;;;;;;5138846;27;20436;-44
2022/02/25 02:14:13;;;;;;;3.07;1.27;;;1.80;92.60;;;;;;5140380;27;20437;-44
2022/02/25 02:16:41;;;;;;;3.97;1.30;;;1.70;92.50;;;;;;5139221;27;20754;-44
2022/02/25 02:19:09;;;;;;;2.63;1.30;;;1.80;92.50;;;;;;5140119;27;20405;-43
2022/02/25 02:21:39;;;;;;;6.03;1.80;;;1.80;92.40;;;;;;5138077;27;20711;-44
2022/02/25 02:24:05;;;;;;;4.47;1.67;;;1.80;92.40;;;;;;5140265;27;20428;-44
2022/02/25 02:26:31;;;;;;;3.27;1.30;;;1.80;92.50;;;;;;5138721;27;20428;-44
2022/02/25 02:28:57;;;;;;;5.50;2.00;;;1.80;92.50;;;;;;5138994;27;20398;-44
2022/02/25 02:31:23;;;;;;;4.67;1.50;;;1.70;92.60;;;;;;5137722;27;20516;-44
2022/02/25 02:33:49;;;;;;;3.20;1.30;;;1.70;92.70;;;;;;5138760;27;20508;-43
2022/02/25 02:36:15;;;;;;;3.43;1.37;;;1.70;92.70;;;;;;5119683;27;20436;-44
2022/02/25 02:38:40;;;;;;;4.23;1.70;;;1.60;92.80;;;;;;5139126;27;20194;-44
2022/02/25 02:41:07;;;;;;;3.93;1.63;;;1.70;93.00;;;;;;5136805;27;20565;-43
2022/02/25 02:43:33;;;;;;;6.73;1.73;;;1.70;93.00;;;;;;5138889;27;20472;-44
2022/02/25 02:45:59;;;;;;;3.07;1.93;;;1.60;93.10;;;;;;5138333;27;20424;-44
2022/02/25 02:48:25;;;;;;;4.63;1.70;;;1.60;93.20;;;;;;5139494;27;20481;-44
2022/02/25 02:50:50;;;;;;;6.43;1.50;;;1.50;93.30;;;;;;5137119;27;20191;-44
2022/02/25 02:53:16;;;;;;;3.23;1.60;;;1.50;93.50;;;;;;5139251;27;20473;-44
2022/02/25 02:55:43;;;;;;;3.43;1.13;;;1.60;93.50;;;;;;5138298;27;20183;-44
2022/02/25 02:58:09;;;;;;;5.60;2.80;;;1.50;93.50;;;;;;5138797;27;20179;-44
2022/02/25 03:00:36;;;;;;;3.50;1.70;;;1.50;93.60;;;;;;5138422;27;20418;-44
2022/02/25 03:03:01;;;;;;;3.20;1.50;;;1.50;93.80;;;;;;5139452;27;20499;-44
2022/02/25 03:05:27;;;;;;;3.13;1.40;;;1.50;94.00;;;;;;5137687;27;20828;-44
2022/02/25 03:07:53;;;;;;;2.10;1.20;;;1.40;94.10;;;;;;5139828;27;20175;-44
2022/02/25 03:10:18;;;;;;;3.83;1.30;;;1.40;94.20;;;;;;5137198;27;20187;-44
2022/02/25 03:12:44;;;;;;;3.57;1.43;;;1.40;94.30;;;;;;5139045;27;20583;-44
2022/02/25 03:15:11;;;;;;;5.53;1.60;;;1.40;94.10;;;;;;5138754;27;20194;-44
2022/02/25 03:17:37;;;;;;;7.23;1.57;;;1.40;94.00;;;;;;5119807;27;20517;-44
2022/02/25 03:20:07;;;;;;;6.63;1.67;;;1.40;94.10;;;;;;5138838;27;20807;-44
2022/02/25 03:22:33;;;;;;;4.00;1.20;;;1.40;94.20;;;;;;5137607;27;20229;-44
2022/02/25 03:24:59;;;;;;;3.43;1.70;;;1.40;94.30;;;;;;5138929;27;20835;-44
2022/02/25 03:27:24;;;;;;;2.30;1.23;;;1.40;94.30;;;;;;5137788;27;20436;-43
2022/02/25 03:29:50;;;;;;;2.40;1.13;;;1.40;94.20;;;;;;5120680;27;20167;-44
2022/02/25 03:32:16;;;;;;;4.80;1.40;;;1.40;94.00;;;;;;5137815;27;20467;-44
2022/02/25 03:34:42;;;;;;;3.63;1.30;;;1.40;94.20;;;;;;5138910;27;20433;-44
2022/02/25 03:37:08;;;;;;;3.67;1.33;;;1.40;94.20;;;;;;5118572;28;20256;-44
2022/02/25 03:39:34;;;;;;;3.90;1.63;;;1.40;94.10;;;;;;5137738;28;20412;-44
2022/02/25 03:41:59;;;;;;;3.23;1.10;;;1.40;94.10;;;;;;5136924;28;20468;-44
2022/02/25 03:44:25;;;;;;;5.37;1.43;;;1.40;94.30;;;;;;5139149;27;20467;-44
2022/02/25 03:46:51;;;;;;;4.30;1.00;;;1.40;94.20;;;;;;5136747;28;20192;-44
2022/02/25 03:49:17;;;;;;;2.40;0.70;;;1.40;94.10;;;;;;5138590;28;20203;-44
2022/02/25 03:51:43;;;;;;;3.47;1.10;;;1.40;94.10;;;;;;5137649;28;20184;-44
2022/02/25 03:54:08;;;;;;;4.20;1.77;;;1.30;94.10;;;;;;5142164;27;20172;-43
2022/02/25 03:56:34;;;;;;;2.17;1.20;;;1.40;94.10;;;;;;5141123;27;20424;-44
2022/02/25 03:59:00;;;;;;;4.73;1.30;;;1.40;94.00;;;;;;5142818;27;20184;-44
2022/02/25 04:01:26;;;;;;;6.33;1.27;;;1.40;93.80;;;;;;5141289;27;20493;-44
2022/02/25 04:03:52;;;;;;;2.93;1.23;;;1.50;93.80;;;;;;5142490;27;20215;-44
2022/02/25 04:06:18;;;;;;;2.30;1.20;;;1.50;93.80;;;;;;5140561;27;20449;-44
2022/02/25 04:08:44;;;;;;;3.37;1.80;;;1.40;93.80;;;;;;5142454;27;20458;-44
2022/02/25 04:11:10;;;;;;;2.50;1.20;;;1.40;94.00;;;;;;5141280;27;20827;-44
2022/02/25 04:13:37;;;;;;;5.33;1.10;;;1.40;93.80;;;;;;5142364;27;20199;-44
2022/02/25 04:16:03;;;;;;;9.70;1.90;;;1.40;94.10;;;;;;5141478;27;20775;-45
2022/02/25 04:18:28;;;;;;;6.63;1.20;;;1.30;94.00;;;;;;5142207;27;20420;-44
2022/02/25 04:20:54;;;;;;;3.73;1.40;;;1.30;94.10;;;;;;5141325;27;20421;-42
2022/02/25 04:23:19;;;;;;;4.60;1.50;;;1.30;94.10;;;;;;5142310;27;20556;-44
2022/02/25 04:25:48;;;;;;;3.70;1.03;;;1.30;94.40;;;;;;5140338;27;20179;-44
2022/02/25 04:28:14;;;;;;;8.20;1.57;;;1.30;94.40;;;;;;5142303;27;20640;-44
2022/02/25 04:30:41;;;;;;;5.63;1.37;;;1.30;94.50;;;;;;5141401;27;20497;-44
2022/02/25 04:33:06;;;;;;;4.27;1.73;;;1.30;94.40;;;;;;5141145;27;20736;-44
2022/02/25 04:35:32;;;;;;;5.33;1.67;;;1.30;94.50;;;;;;5141889;27;20500;-44
2022/02/25 04:37:58;;;;;;;6.80;1.50;;;1.40;94.50;;;;;;5140587;27;20194;-44
2022/02/25 04:40:23;;;;;;;4.27;1.30;;;1.40;94.40;;;;;;5142351;27;20195;-44
2022/02/25 04:42:49;;;;;;;6.47;1.60;;;1.30;94.40;;;;;;5139928;27;20219;-44
2022/02/25 04:45:15;;;;;;;5.00;1.37;;;1.30;94.50;;;;;;5141443;27;20183;-44
2022/02/25 04:47:41;;;;;;;6.50;1.60;;;1.30;94.50;;;;;;5139362;27;20232;-44
2022/02/25 04:50:07;;;;;;;10.27;1.63;;;1.40;94.40;;;;;;5140442;27;20416;-44
2022/02/25 04:52:34;;;;;;;7.20;1.50;;;1.30;94.50;;;;;;5139467;27;20436;-44
2022/02/25 04:55:00;;;;;;;6.03;1.90;;;1.40;94.60;;;;;;5139956;27;20435;-44
2022/02/25 04:57:25;;;;;;;6.40;1.40;;;1.30;94.70;;;;;;5138696;27;20433;-44
2022/02/25 04:59:51;;;;;;;5.20;1.70;;;1.30;94.90;;;;;;5138887;27;20567;-44
2022/02/25 05:02:16;;;;;;;5.10;1.30;;;1.30;95.00;;;;;;5139564;27;20302;-47
2022/02/25 05:04:42;;;;;;;1.90;1.30;;;1.30;94.80;;;;;;5139698;27;20199;-47
2022/02/25 05:07:08;;;;;;;3.97;2.40;;;1.30;94.90;;;;;;5139256;27;20188;-47
2022/02/25 05:09:33;;;;;;;2.80;1.27;;;1.40;95.00;;;;;;5140356;27;20597;-47
2022/02/25 05:11:59;;;;;;;4.33;1.37;;;1.40;94.90;;;;;;5139883;27;20193;-44
2022/02/25 05:22:37;;;;;;;7.63;2.03;;;1.40;95.20;;;;;;5137764;27;20475;-44
2022/02/25 05:25:03;;;;;;;7.90;1.80;;;1.50;95.10;;;;;;5138060;27;20409;-46
2022/02/25 05:27:29;;;;;;;7.80;2.10;;;1.50;95.00;;;;;;5137670;27;20246;-43
2022/02/25 05:29:55;;;;;;;6.97;1.90;;;1.50;95.10;;;;;;5139862;27;20421;-42
2022/02/25 05:32:21;;;;;;;12.43;1.77;;;1.50;95.10;;;;;;5138213;27;20468;-42
2022/02/25 05:34:46;;;;;;;5.30;2.00;;;1.60;95.10;;;;;;5138915;27;20220;-41
2022/02/25 05:37:12;;;;;;;8.97;2.13;;;1.60;95.00;;;;;;5138865;27;20196;-43
2022/02/25 05:39:38;;;;;;;6.40;2.20;;;1.70;95.00;;;;;;5120304;27;20580;-41
2022/02/25 05:42:03;;;;;;;6.20;2.03;;;1.80;94.80;;;;;;5139153;27;20202;-42
2022/02/25 05:44:30;;;;;;;9.20;2.43;;;;;;;;;;5140207;27;20192;-42
2022/02/25 05:46:55;;;;;;;6.63;2.07;;;1.80;94.50;;;;;;5137532;27;20490;-41
2022/02/25 05:49:21;;;;;;;4.03;1.70;;;1.80;94.90;;;;;;5137983;27;20491;-41
2022/02/25 05:51:47;;;;;;;7.60;2.10;;;1.70;94.80;;;;;;5137670;27;20256;-41
2022/02/25 05:54:13;;;;;;;7.60;1.87;;;1.70;95.00;;;;;;5138857;27;20175;-42
2022/02/25 05:56:38;;;;;;;5.03;1.60;;;1.70;95.00;;;;;;5136734;27;20866;-41
2022/02/25 05:59:05;;;;;;;3.73;1.60;;;1.70;94.90;;;;;;5135102;27;20561;-42
2022/02/25 06:01:31;;;;;;;7.77;2.00;;;1.80;94.80;;;;;;5135825;27;20188;-43
2022/02/25 06:03:56;;;;;;;2.27;1.40;;;1.80;94.90;;;;;;5118823;27;20460;-41
2022/02/25 06:06:22;;;;;;;11.37;3.57;;;1.80;94.70;;;;;;5136159;27;20180;-41
2022/02/25 06:08:47;;;;;;;7.07;2.17;;;1.80;94.90;;;;;;5136594;27;20184;-42
2022/02/25 06:11:13;;;;;;;6.27;2.40;;;1.70;95.40;;;;;;5136539;27;20583;-42
2022/02/25 06:13:39;;;;;;;4.17;1.80;;;1.70;95.70;;;;;;5136109;27;20601;-41
2022/02/25 06:16:04;;;;;;;6.87;1.90;;;1.70;96.00;;;;;;5136403;27;20353;-45
2022/02/25 06:18:30;;;;;;;3.20;1.57;;;1.70;95.70;;;;;;5135520;27;20187;-41
2022/02/25 06:20:56;;;;;;;6.40;2.27;;;1.70;95.50;;;;;;5135652;27;20564;-40
2022/02/25 06:23:24;;;;;;;7.43;2.63;;;1.80;95.60;;;;;;5135458;27;20207;-42
2022/02/25 06:25:54;;;;;;;4.90;2.13;;;1.80;95.40;;;;;;5136576;27;20213;-41
2022/02/25 06:28:20;;;;;;;18.67;2.17;;;1.80;95.50;;;;;;5134246;27;20409;-42
2022/02/25 06:30:46;;;;;;;4.97;1.73;;;1.70;95.70;;;;;;5133948;27;20413;-43
2022/02/25 06:33:12;;;;;;;8.47;2.17;;;1.70;95.80;;;;;;5132146;27;20477;-42
2022/02/25 06:35:38;;;;;;;2.77;1.73;;;1.70;95.90;;;;;;5135030;27;20168;-41
2022/02/25 06:38:04;;;;;;;7.03;1.90;;;1.70;96.10;;;;;;5135827;27;20437;-44
2022/02/25 06:40:29;;;;;;;7.03;2.00;;;1.60;96.20;;;;;;5144278;27;20438;-41
2022/02/25 06:42:56;;;;;;;6.53;1.90;;;1.70;96.20;;;;;;5116241;27;20472;-42
2022/02/25 06:45:22;;;;;;;10.37;2.50;;;1.70;96.20;;;;;;5118034;27;20244;-43
2022/02/25 06:47:48;;;;;;;4.43;1.73;;;1.90;96.20;;;;;;5133778;27;20413;-42
2022/02/25 06:50:17;;;;;;;8.00;1.80;;;2.00;95.80;;;;;;5134707;27;20404;-44
2022/02/25 06:52:44;;;;;;;10.60;2.30;;;2.00;95.60;;;;;;5133922;27;20436;-43
2022/02/25 06:55:13;;;;;;;7.40;2.10;;;2.00;95.50;;;;;;5135669;27;20401;-44
2022/02/25 06:57:43;;;;;;;7.20;2.90;;;2.00;95.70;;;;;;5134149;27;20429;-42
2022/02/25 07:00:11;;;;;;;8.67;3.20;;;2.10;95.60;;;;;;5133110;27;20708;-41
2022/02/25 07:02:37;;;;;;;5.63;2.90;;;2.10;95.60;;;;;;5116635;27;20465;-42
2022/02/25 07:05:04;;;;;;;4.67;1.97;;;2.30;95.20;;;;;;5123772;27;20433;-43
2022/02/25 07:07:29;;;;;;;10.30;2.90;;;2.60;95.00;;;;;;5113334;28;20414;-43
2022/02/25 07:09:55;;;;;;;7.00;1.53;;;2.60;94.40;;;;;;5112368;28;20456;-43
2022/02/25 07:12:21;;;;;;;7.37;2.70;;;2.80;94.00;;;;;;5113515;28;20206;-42
2022/02/25 07:14:47;;;;;;;7.33;1.90;;;2.90;93.70;;;;;;5113954;28;20254;-41
2022/02/25 07:17:13;;;;;;;5.20;2.27;;;2.80;93.60;;;;;;5123577;27;21049;-43
2022/02/25 07:19:39;;;;;;;8.33;2.57;;;3.00;93.70;;;;;;5132756;27;20462;-42
2022/02/25 07:22:05;;;;;;;6.27;1.80;;;3.10;93.30;;;;;;5135977;27;20244;-43
2022/02/25 07:24:30;;;;;;;4.20;2.20;;;3.50;92.80;;;;;;5135303;27;20436;-42
2022/02/25 07:26:56;;;;;;;8.70;2.10;;;3.90;92.10;;;;;;5119461;27;20184;-42
2022/02/25 07:29:22;;;;;;;8.03;2.53;;;4.00;91.40;;;;;;5134677;27;20182;-45
2022/02/25 07:31:48;;;;;;;8.33;2.20;;;4.10;91.00;;;;;;5133534;27;20335;-41
2022/02/25 07:34:14;;;;;;;4.87;1.97;;;4.40;91.00;;;;;;5133031;27;20459;-43
2022/02/25 07:36:42;;;;;;;11.70;2.60;;;4.80;90.10;;;;;;5135530;27;20191;-44
2022/02/25 07:39:07;;;;;;;6.77;2.03;;;4.80;89.00;;;;;;5133425;27;20461;-42
2022/02/25 07:41:33;;;;;;;6.60;2.10;;;4.60;88.20;;;;;;5135105;28;20428;-43
2022/02/25 07:43:59;;;;;;;8.67;2.20;;;4.50;90.00;;;;;;5133350;28;20215;-42
2022/02/25 07:46:25;;;;;;;7.07;1.90;;;4.50;88.70;;;;;;5135686;28;20183;-44
2022/02/25 07:48:51;;;;;;;5.70;2.30;;;4.60;88.20;;;;;;5134552;28;20420;-44
2022/02/25 07:51:16;;;;;;;4.53;1.63;;;4.90;89.00;;;;;;5117962;28;20186;-42
2022/02/25 07:53:44;;;;;;;4.97;1.70;;;5.10;86.50;;;;;;5135585;28;20441;-43
2022/02/25 07:56:11;;;;;;;5.90;2.30;;;4.90;85.70;;;;;;5137330;28;20295;-42
2022/02/25 07:58:36;;;;;;;4.63;2.27;;;5.00;86.00;;;;;;5116572;28;20444;-43
2022/02/25 08:01:02;;;;;;;4.50;2.03;;;5.10;85.20;;;;;;5138304;28;20696;-42
2022/02/25 08:03:28;;;;;;;7.27;2.80;;;5.20;84.90;;;;;;5136703;28;20366;-44
2022/02/25 08:05:54;;;;;;;4.57;1.80;;;5.70;84.90;;;;;;5138143;28;20179;-43
2022/02/25 08:08:20;;;;;;;4.30;2.00;;;6.30;82.10;;;;;;5135180;28;20206;-43
2022/02/25 08:10:47;;;;;;;7.50;1.60;;;6.90;79.80;;;;;;5138201;28;20838;-42
2022/02/25 08:13:12;;;;;;;3.90;2.00;;;7.40;78.00;;;;;;5137143;28;20448;-43
2022/02/25 08:15:38;;;;;;;3.90;2.03;;;7.70;74.50;;;;;;5135582;28;20459;-42
2022/02/25 08:18:06;;;;;;;7.90;2.40;;;7.80;74.20;;;;;;5136554;28;20842;-44
2022/02/25 08:20:33;;;;;;;6.60;2.43;;;7.70;73.40;;;;;;5116639;28;20461;-43
2022/02/25 08:23:01;;;;;;;9.00;2.80;;;8.30;72.40;;;;;;5135396;28;20568;-42
2022/02/25 08:25:27;;;;;;;7.60;1.80;;;8.90;70.80;;;;;;5133363;28;20464;-41
2022/02/25 08:27:52;;;;;;;5.70;1.83;;;9.80;69.30;;;;;;5136117;28;20775;-41
2022/02/25 08:30:20;;;;;;;4.97;1.90;;;10.50;63.30;;;;;;5135289;28;20433;-39
2022/02/25 08:32:47;;;;;;;6.83;1.63;;;10.50;60.90;;;;;;5136894;28;20800;-42
2022/02/25 08:35:14;;;;;;;5.87;1.77;;;10.60;61.10;;;;;;5134452;28;20543;-42
2022/02/25 08:37:40;;;;;;;4.73;2.17;;;11.00;59.20;;;;;;5117864;28;20416;-40
2022/02/25 08:40:06;;;;;;;10.33;2.83;;;11.50;58.20;;;;;;5117022;27;20435;-42
2022/02/25 08:42:32;;;;;;;5.77;2.00;;;11.30;56.80;;;;;;5138635;27;20807;-40
2022/02/25 08:44:58;;;;;;;6.30;2.17;;;9.90;59.90;;;;;;5140355;27;20827;-41
2022/02/25 08:47:24;;;;;;;6.57;2.37;;;9.50;65.20;;;;;;5139870;27;20535;-42
2022/02/25 08:49:50;;;;;;;6.30;2.30;;;10.10;64.30;;;;;;5140042;27;20495;-45
2022/02/25 08:52:15;;;;;;;15.73;2.67;;;10.90;59.80;;;;;;5136275;27;20195;-41
2022/02/25 08:54:41;;;;;;;9.13;2.40;;;11.40;57.30;;;;;;5143910;27;20684;-44
2022/02/25 08:57:07;;;;;;;8.13;2.57;;;11.30;56.70;;;;;;5151282;27;20255;-42
2022/02/25 08:59:33;;;;;;;5.90;2.30;;;10.80;57.00;;;;;;5161322;27;20534;-43
2022/02/25 09:01:59;;;;;;;6.93;2.47;;;11.10;56.10;;;;;;5160322;27;20185;-43
2022/02/25 09:04:24;;;;;;;5.43;2.33;;;11.10;56.30;;;;;;5141809;27;20411;-41
2022/02/25 09:06:50;;;;;;;6.20;2.00;;;10.60;54.90;;;;;;5160266;27;20246;-42
2022/02/25 09:09:16;;;;;;;6.10;2.73;;;9.90;57.40;;;;;;5160989;27;20178;-44
2022/02/25 09:11:42;;;;;;;8.37;2.20;;;10.10;57.00;;;;;;5159114;27;20560;-43
2022/02/25 09:14:07;;;;;;;4.97;2.10;;;9.80;57.50;;;;;;5160738;27;20183;-40
2022/02/25 09:16:33;;;;;;;5.27;1.93;;;9.60;56.70;;;;;;5159812;27;20438;-43
2022/02/25 09:18:59;;;;;;;5.83;1.70;;;9.00;57.60;;;;;;5160698;27;20239;-41
2022/02/25 09:21:25;;;;;;;8.40;1.63;;;8.90;58.50;;;;;;5157828;27;20470;-42
2022/02/25 09:23:51;;;;;;;8.00;2.40;;;9.20;56.70;;;;;;5156378;27;20267;-42
2022/02/25 09:26:17;;;;;;;4.53;1.63;;;9.80;57.00;;;;;;5138820;27;20501;-42
2022/02/25 09:28:43;;;;;;;4.67;2.07;;;10.80;55.30;;;;;;5136349;27;20500;-42
2022/02/25 09:31:09;;;;;;;4.70;1.87;;;11.10;53.30;;;;;;5119539;27;20461;-42
2022/02/25 09:33:36;;;;;;;5.60;1.60;;;11.00;52.70;;;;;;5135075;27;20484;-43
2022/02/25 09:36:02;;;;;;;4.73;2.03;;;11.00;52.80;;;;;;5137381;27;20179;-43
2022/02/25 09:38:28;;;;;;;7.73;1.80;;;11.10;52.20;;;;;;5137000;27;20520;-42
2022/02/25 09:40:53;;;;;;;7.30;2.47;;;11.60;52.50;;;;;;5139440;27;20516;-42
2022/02/25 09:43:19;;;;;;;5.70;1.57;;;11.00;51.90;;;;;;5138185;27;20484;-45
2022/02/25 09:45:45;;;;;;;9.47;2.53;;;11.30;50.80;;;;;;5121660;27;20257;-42
2022/02/25 09:48:11;;;;;;;5.23;1.57;;;10.50;51.00;;;;;;5140437;27;20265;-42
2022/02/25 09:50:38;;;;;;;4.03;1.33;;;10.50;51.50;;;;;;5138633;27;20416;-42
2022/02/25 09:53:04;;;;;;;6.33;1.50;;;10.70;52.10;;;;;;5134902;27;20865;-43
2022/02/25 09:55:32;;;;;;;5.80;1.70;;;10.30;51.80;;;;;;5136640;27;20464;-42
2022/02/25 09:58:00;;;;;;;4.23;1.63;;;9.60;53.20;;;;;;5134465;27;20717;-43
2022/02/25 10:00:27;;;;;;;3.90;1.23;;;9.40;54.20;;;;;;5117956;27;20828;-44
2022/02/25 10:02:58;;;;;;;5.20;1.87;;;8.70;54.90;;;;;;5134300;27;20945;-43
2022/02/25 10:05:25;;;;;;;7.20;1.90;;;8.20;55.60;;;;;;5136464;27;20756;-43
2022/02/25 10:07:51;;;;;;;6.00;1.43;;;7.90;56.80;;;;;;5136213;27;20413;-42
2022/02/25 10:10:20;;;;;;;5.00;1.67;;;8.90;56.30;;;;;;5138515;27;20423;-41
2022/02/25 10:13:06;;;;;;;2.50;1.10;;;9.20;55.00;;;;;;5138215;27;20803;-42
2022/02/25 10:15:36;;;;;;;4.57;2.37;;;8.90;54.60;;;;;;5138712;27;20588;-43
2022/02/25 10:18:04;;;;;;;5.57;1.43;;;8.60;54.90;;;;;;5137190;27;20441;-42
2022/02/25 10:20:30;;;;;;;6.03;1.70;;;7.90;55.40;;;;;;5138270;27;20501;-42
2022/02/25 10:22:57;;;;;;;4.20;1.53;;;7.60;57.00;;;;;;5137921;27;20978;-41
2022/02/25 10:25:25;;;;;;;4.80;1.47;;;7.30;58.10;;;;;;5138138;27;20475;-44
2022/02/25 10:27:51;;;;;;;9.00;2.20;;;8.30;58.80;;;;;;5119394;27;20456;-42
2022/02/25 10:30:19;;;;;;;6.00;1.83;;;8.70;56.30;;;;;;5139212;27;20412;-41
2022/02/25 10:32:50;;;;;;;4.77;1.93;;;8.20;57.30;;;;;;5137366;27;20481;-41
2022/02/25 10:35:29;;;;;;;2.80;1.20;;;8.80;57.10;;;;;;5135834;27;20433;-43
2022/02/25 10:38:15;;;;;;;5.03;1.60;;;9.50;55.80;;;;;;5137983;27;20419;-42
2022/02/25 10:40:43;;;;;;;7.43;1.80;;;9.80;54.60;;;;;;5137821;27;20428;-44
2022/02/25 10:43:22;;;;;;;4.30;1.20;;;10.20;52.70;;;;;;5135777;27;20476;-42
2022/02/25 10:45:56;;;;;;;4.40;1.40;;;10.80;52.80;;;;;;5132744;27;20423;-42
2022/02/25 10:48:28;;;;;;;3.80;1.60;;;11.00;50.50;;;;;;5135709;27;20468;-42
2022/02/25 10:50:59;;;;;;;6.80;2.33;;;11.10;50.40;;;;;;5117449;27;20424;-42
2022/02/25 10:53:33;;;;;;;5.77;1.67;;;11.00;50.30;;;;;;5137310;27;20409;-43
2022/02/25 10:56:17;;;;;;;4.67;1.80;;;11.70;50.50;;;;;;5135485;27;20432;-43
2022/02/25 10:58:56;;;;;;;5.93;1.63;;;13.00;51.60;;;;;;5137753;27;20477;-44
2022/02/25 11:01:24;;;;;;;3.50;2.03;;;13.00;48.70;;;;;;5136062;27;20432;-43
2022/02/25 11:04:04;;;;;;;3.33;1.23;;;13.40;50.40;;;;;;5135966;27;21030;-43
2022/02/25 11:06:30;;;;;;;5.53;1.50;;;14.30;47.70;;;;;;5135417;27;20482;-44
2022/02/25 11:08:56;;;;;;;6.50;1.50;;;13.80;48.40;;;;;;5137301;27;20405;-42
2022/02/25 11:11:23;;;;;;;7.47;1.87;;;13.50;47.70;;;;;;5143019;27;20720;-43
2022/02/25 11:13:50;;;;;;;5.70;1.57;;;13.50;45.20;;;;;;5155057;27;20277;-43
2022/02/25 11:16:18;;;;;;;4.17;1.53;;;13.20;43.60;;;;;;5118748;27;20893;-45
2022/02/25 11:18:50;;;;;;;3.17;1.23;;;11.90;44.30;;;;;;5116309;28;20647;-43
2022/02/25 11:21:17;;;;;;;8.30;1.60;;;11.90;45.10;;;;;;5114358;28;20430;-43
2022/02/25 11:23:43;;;;;;;2.90;1.87;;;13.20;45.10;;;;;;5115238;28;20470;-45
2022/02/25 11:26:14;;;;;;;5.47;1.60;;;13.70;43.50;;;;;;5114859;28;20460;-42
2022/02/25 11:28:41;;;;;;;5.13;1.37;;;12.80;42.10;;;;;;5114121;28;20685;-43
2022/02/25 11:31:29;;;;;;;3.03;1.13;;;13.20;42.40;;;;;;5114752;28;20514;-42
2022/02/25 11:34:00;;;;;;;4.60;1.73;;;13.50;41.30;;;;;;5112836;28;20448;-42
2022/02/25 11:36:51;;;;;;;6.87;2.10;;;13.30;40.80;;;;;;5093722;28;20551;-42
2022/02/25 11:39:25;;;;;;;4.50;1.40;;;13.90;42.50;;;;;;5114883;28;20729;-44
2022/02/25 11:42:03;;;;;;;3.47;1.30;;;13.30;41.50;;;;;;5114370;28;20429;-43
2022/02/25 11:44:31;;;;;;;5.83;1.60;;;13.20;42.40;;;;;;5122095;28;20433;-42
2022/02/25 11:46:58;;;;;;;5.27;1.70;;;12.80;41.60;;;;;;5135038;27;20496;-44
2022/02/25 11:49:29;;;;;;;6.57;1.43;;;12.50;41.80;;;;;;5134624;27;20417;-43
2022/02/25 11:51:57;;;;;;;4.60;1.40;;;12.00;42.60;;;;;;5134623;27;20423;-44
2022/02/25 11:54:34;;;;;;;6.40;1.60;;;12.00;42.80;;;;;;5132702;28;20432;-44
2022/02/25 11:56:59;;;;;;;4.23;1.60;;;11.70;42.00;;;;;;5126835;27;20451;-44
2022/02/25 11:59:32;;;;;;;5.93;1.53;;;10.80;42.60;;;;;;5133549;28;20425;-43
2022/02/25 12:02:32;;;;;;;6.13;1.77;;;10.10;43.70;;;;;;5136154;28;20183;-42
2022/02/25 12:05:04;;;;;;;7.33;1.60;;;9.80;45.60;;;;;;5116743;28;20468;-42
2022/02/25 12:07:44;;;;;;;5.57;3.90;;;9.90;46.10;;;;;;5135512;28;20429;-43
2022/02/25 12:10:12;;;;;;;5.20;2.67;;;10.70;45.20;;;;;;5132039;28;20421;-42
2022/02/25 12:12:46;;;;;;;6.40;2.40;;;10.80;44.10;;;;;;5120473;28;20413;-44
2022/02/25 12:15:33;;;;;;;3.07;1.40;;;10.20;44.70;;;;;;5136511;27;20443;-45
2022/02/25 12:18:04;;;;;;;7.80;1.70;;;9.30;46.90;;;;;;5138559;27;20416;-43
2022/02/25 12:20:59;;;;;;;3.37;1.43;;;9.00;48.40;;;;;;5137849;27;20527;-44
2022/02/25 12:23:46;;;;;;;18.50;3.47;;;9.00;48.20;;;;;;5126452;27;21041;-43
2022/02/25 12:26:12;;;;;;;6.10;1.90;;;8.20;48.60;;;;;;5117011;28;20421;-45
2022/02/25 12:28:47;;;;;;;4.17;1.80;;;7.90;49.30;;;;;;5118432;28;21124;-42
2022/02/25 12:31:17;;;;;;;4.33;1.50;;;8.30;49.80;;;;;;5118126;28;20432;-43
2022/02/25 12:33:43;;;;;;;8.43;2.10;;;8.40;49.70;;;;;;5119651;28;20436;-42
2022/02/25 12:36:08;;;;;;;4.70;1.30;;;8.00;49.40;;;;;;5116124;28;20418;-42
2022/02/25 12:38:39;;;;;;;3.90;1.60;;;7.70;50.10;;;;;;5134351;27;20192;-42
2022/02/25 12:41:19;;;;;;;4.97;1.60;;;7.30;51.10;;;;;;5139206;27;20780;-43
2022/02/25 12:43:55;;;;;;;5.00;1.80;;;7.10;52.00;;;;;;5139773;27;20864;-43
2022/02/25 12:46:23;;;;;;;5.17;2.00;;;6.70;53.10;;;;;;5139991;27;20687;-42
2022/02/25 12:48:50;;;;;;;6.80;2.03;;;7.40;53.70;;;;;;5139295;27;20443;-43
2022/02/25 12:51:18;;;;;;;5.60;2.10;;;8.80;53.20;;;;;;5137476;27;20421;-42
2022/02/25 12:53:58;;;;;;;5.20;2.20;;;10.80;50.20;;;;;;5136936;27;20428;-44
2022/02/25 12:56:45;;;;;;;4.77;1.80;;;12.00;46.80;;;;;;5137981;27;20436;-45
2022/02/25 12:59:17;;;;;;;4.00;1.83;;;11.00;45.40;;;;;;5140158;27;20769;-45
2022/02/25 13:01:51;;;;;;;6.03;1.63;;;9.90;47.80;;;;;;5138964;27;20427;-42
2022/02/25 13:04:30;;;;;;;6.33;1.70;;;8.60;49.40;;;;;;5119488;27;20460;-42
2022/02/25 13:06:58;;;;;;;4.60;2.77;;;7.90;50.40;;;;;;5140672;27;20411;-43